This is the latest recevied weather packets stored in our database for station/object N9XTN-3. If no packets are shown the sender has not sent any weather packets the latest 10 day(s).
| Time | Temp. | Humidity | Pressure | Rain* | Wind** | Luminosity | Snow |
|---|---|---|---|---|---|---|---|
| 1777770916 | 17.78° C | 31% | 1013.9 hPa | 0 mm | - | - | - |
| 1777769716 | 18.33° C | 30% | 1013.9 hPa | 0 mm | - | - | - |
| 1777768536 | 19.44° C | 29% | 1013.9 hPa | 0 mm | - | - | - |
| 1777767916 | 19.44° C | 27% | 1014 hPa | 0 mm | - | - | - |
| 1777767016 | 20° C | 28% | 1014.1 hPa | 0 mm | - | - | - |
| 1777764916 | 20.56° C | 28% | 1014.7 hPa | 0 mm | - | - | - |
| 1777763716 | 20.56° C | 27% | 1015 hPa | 0 mm | - | - | - |
| 1777762816 | 20.56° C | 29% | 1015.1 hPa | 0 mm | - | - | - |
| 1777761937 | 20.56° C | 26% | 1015.3 hPa | 0 mm | - | - | - |
| 1777760716 | 20° C | 26% | 1015.5 hPa | 0 mm | - | - | - |
| 1777760136 | 20° C | 28% | 1015.7 hPa | 0 mm | - | - | - |
| 1777759817 | 20° C | 31% | 1015.8 hPa | 0 mm | - | - | - |
| 1777757416 | 20° C | 26% | 1016.5 hPa | 0 mm | - | - | - |
| 1777757116 | 20° C | 29% | 1016.6 hPa | 0 mm | - | - | - |
| 1777756816 | 20° C | 29% | 1016.7 hPa | 0 mm | - | - | - |
| 1777755617 | 19.44° C | 28% | 1017 hPa | 0 mm | - | - | - |
| 1777753517 | 18.89° C | 29% | 1017.6 hPa | 0 mm | - | - | - |
| 1777752617 | 18.89° C | 36% | 1017.9 hPa | 0 mm | - | - | - |
| 1777749616 | 18.33° C | 35% | 1018.8 hPa | 0 mm | - | - | - |
| 1777749037 | 17.78° C | 36% | 1019.2 hPa | 0 mm | - | - | - |
| 1777747816 | 17.22° C | 34% | 1019.4 hPa | 0 mm | - | - | - |
| 1777747216 | 17.22° C | 34% | 1019.5 hPa | 0 mm | - | - | - |
| 1777746937 | 17.22° C | 34% | 1019.6 hPa | 0 mm | - | - | - |
| 1777742416 | 16.11° C | 41% | 1020.6 hPa | 0 mm | - | - | - |
| 1777741516 | 15.56° C | 39% | 1020.8 hPa | 0 mm | - | - | - |
* Rain latest hour (hover to see other rain measurements)
** Current wind speed in m/s (hover to see current wind gust speed)